Time;durP1;ratioP1;P1;durP2;ratioP2;P2;SDS_P1;SDS_P2;PMS_P1;PMS_P2;Temp;Humidity;BMP_temperature;BMP_pressure;BME280_temperature;BME280_humidity;BME280_pressure;Samples;Min_cycle;Max_cycle;Signal;HPM_P1;HPM_P2
2022/05/09 00:00:38;;;;;;;14.45;4.13;;;8.00;99.90;;;;;;5100202;27;20118;-79
2022/05/09 00:03:04;;;;;;;15.48;4.25;;;8.00;99.90;;;;;;5105007;27;20035;-79
2022/05/09 00:05:30;;;;;;;16.38;4.25;;;8.00;99.90;;;;;;5079921;27;20432;-79
2022/05/09 00:07:56;;;;;;;16.58;3.95;;;7.90;99.90;;;;;;5106531;27;20051;-79
2022/05/09 00:10:25;;;;;;;13.27;4.15;;;7.90;99.90;;;;;;5097097;27;20359;-79
2022/05/09 00:12:51;;;;;;;15.45;4.32;;;7.80;99.90;;;;;;5114260;28;20049;-78
2022/05/09 00:15:18;;;;;;;18.80;4.85;;;7.80;99.90;;;;;;5114871;27;20519;-79
2022/05/09 00:17:45;;;;;;;11.18;4.13;;;7.90;99.90;;;;;;5093945;28;20078;-79
2022/05/09 00:20:12;;;;;;;17.63;4.20;;;7.80;99.90;;;;;;5092130;27;20131;-79
2022/05/09 00:22:53;;;;;;;15.45;4.10;;;7.90;99.90;;;;;;5082015;27;20119;-79
2022/05/09 00:25:23;;;;;;;12.43;4.00;;;7.80;99.90;;;;;;5096171;27;20093;-79
2022/05/09 00:27:50;;;;;;;19.33;4.20;;;7.70;99.90;;;;;;5100098;27;20035;-79
2022/05/09 00:30:16;;;;;;;15.65;3.85;;;7.70;99.90;;;;;;5078500;28;20046;-79
2022/05/09 00:32:42;;;;;;;20.00;3.88;;;7.70;99.90;;;;;;5080926;27;20511;-79
2022/05/09 00:35:09;;;;;;;18.13;3.88;;;7.70;99.90;;;;;;5095847;27;20394;-79
2022/05/09 00:37:36;;;;;;;18.27;4.53;;;7.80;99.90;;;;;;5079832;28;20071;-79
2022/05/09 00:40:05;;;;;;;18.25;4.53;;;7.80;99.90;;;;;;5115655;27;20035;-79
2022/05/09 00:42:31;;;;;;;16.52;4.55;;;7.80;99.90;;;;;;5087890;27;20035;-79
2022/05/09 00:44:57;;;;;;;18.38;4.40;;;7.80;99.90;;;;;;5089646;27;20023;-80
2022/05/09 00:47:23;;;;;;;20.80;4.65;;;8.80;99.90;;;;;;5079369;27;20040;-79
2022/05/09 00:49:57;;;;;;;14.65;4.55;;;7.80;99.90;;;;;;5091942;27;20115;-80
2022/05/09 00:52:43;;;;;;;19.02;4.47;;;7.70;99.90;;;;;;5091993;27;20080;-80
2022/05/09 00:55:40;;;;;;;11.90;3.97;;;7.70;99.90;;;;;;5099308;27;20035;-80
2022/05/09 00:58:09;;;;;;;;;;;7.60;99.90;;;;;;5087985;28;20395;-79
2022/05/09 01:00:35;;;;;;;12.23;3.88;;;7.70;99.90;;;;;;5111258;27;19966;-79
2022/05/09 01:03:14;;;;;;;13.40;3.72;;;7.60;99.90;;;;;;5095696;27;20067;-80
2022/05/09 01:05:42;;;;;;;14.85;3.95;;;7.50;99.90;;;;;;5094855;27;20749;-80
2022/05/09 01:08:09;;;;;;;18.80;4.38;;;7.50;99.90;;;;;;5098897;27;20070;-79
2022/05/09 01:10:40;;;;;;;15.70;5.30;;;7.50;99.90;;;;;;5098426;27;20039;-80
2022/05/09 01:13:10;;;;;;;14.90;4.45;;;7.60;99.90;;;;;;5113110;27;20043;-80
2022/05/09 01:15:38;;;;;;;14.30;4.47;;;7.40;99.90;;;;;;5098407;27;20043;-80
2022/05/09 01:18:08;;;;;;;11.43;4.15;;;7.40;99.90;;;;;;5115892;27;20394;-79
2022/05/09 01:20:33;;;;;;;16.75;4.22;;;7.40;99.90;;;;;;5096816;27;20051;-79
2022/05/09 01:23:00;;;;;;;17.90;4.53;;;7.50;99.90;;;;;;5096194;27;20042;-79
2022/05/09 01:25:29;;;;;;;16.15;3.95;;;7.60;99.90;;;;;;5109249;27;20071;-80
2022/05/09 01:27:56;;;;;;;13.18;4.13;;;7.40;99.90;;;;;;5076736;27;20088;-79
2022/05/09 01:30:33;;;;;;;17.15;4.80;;;7.40;99.90;;;;;;5097717;27;20031;-80
2022/05/09 01:33:13;;;;;;;12.75;4.40;;;7.50;99.90;;;;;;5089411;27;20035;-79
2022/05/09 01:36:14;;;;;;;18.90;4.15;;;7.40;99.90;;;;;;5111536;27;20039;-79
2022/05/09 01:38:56;;;;;;;15.90;4.28;;;7.40;99.90;;;;;;5098167;27;20070;-79
2022/05/09 01:41:23;;;;;;;15.50;4.28;;;7.30;99.90;;;;;;5114312;27;20114;-80
2022/05/09 01:43:52;;;;;;;19.63;4.45;;;7.30;99.90;;;;;;5105687;27;20080;-79
2022/05/09 01:46:21;;;;;;;15.05;5.03;;;7.30;99.90;;;;;;5098731;27;20031;-79
2022/05/09 01:51:33;;;;;;;18.38;4.78;;;7.20;99.90;;;;;;5110695;27;20039;-80
2022/05/09 01:53:59;;;;;;;13.23;4.40;;;7.20;99.90;;;;;;5088366;28;20175;-80
2022/05/09 01:56:29;;;;;;;16.70;4.78;;;7.20;99.90;;;;;;5093705;28;20075;-80
2022/05/09 01:58:55;;;;;;;15.07;4.55;;;7.10;99.90;;;;;;5088655;27;20093;-79
2022/05/09 02:01:22;;;;;;;19.88;4.70;;;7.10;99.90;;;;;;5063571;27;20038;-79
2022/05/09 02:03:49;;;;;;;12.32;4.32;;;7.10;99.90;;;;;;5090283;28;20035;-79
2022/05/09 02:06:17;;;;;;;15.10;4.50;;;7.10;99.90;;;;;;5075762;27;20122;-80
2022/05/09 02:08:44;;;;;;;13.43;4.18;;;7.00;99.90;;;;;;5092130;28;20039;-80
2022/05/09 02:11:10;;;;;;;15.63;4.47;;;7.00;99.90;;;;;;5092432;28;20032;-80
2022/05/09 02:13:36;;;;;;;16.10;4.40;;;7.00;99.90;;;;;;5085135;27;20039;-80
2022/05/09 02:16:03;;;;;;;14.52;4.60;;;7.00;99.90;;;;;;5077905;28;20043;-80
2022/05/09 02:18:30;;;;;;;17.60;4.97;;;6.90;99.90;;;;;;5095887;27;20104;-80
2022/05/09 02:20:56;;;;;;;17.88;4.70;;;6.90;99.90;;;;;;5077523;28;20403;-80
2022/05/09 02:23:22;;;;;;;11.52;4.05;;;6.90;99.90;;;;;;5091757;28;20467;-80
2022/05/09 02:25:48;;;;;;;17.38;4.63;;;6.90;99.90;;;;;;5097294;28;20564;-80
2022/05/09 02:28:14;;;;;;;15.00;4.53;;;7.10;99.90;;;;;;5077671;28;20077;-80
2022/05/09 02:30:41;;;;;;;16.50;5.03;;;6.90;99.90;;;;;;5091965;28;20043;-80
2022/05/09 02:33:08;;;;;;;15.23;4.00;;;6.80;99.90;;;;;;5075429;28;20428;-81
2022/05/09 02:35:36;;;;;;;16.08;4.50;;;6.80;99.90;;;;;;5095738;28;20031;-82
2022/05/09 02:38:03;;;;;;;19.88;4.93;;;6.80;99.90;;;;;;5097643;28;20046;-82
2022/05/09 02:40:29;;;;;;;21.67;4.72;;;6.80;99.90;;;;;;5069919;28;20043;-83
2022/05/09 02:42:58;;;;;;;15.40;4.78;;;6.70;99.90;;;;;;5062225;28;20043;-85
2022/05/09 02:45:25;;;;;;;15.57;4.85;;;7.40;99.90;;;;;;5079844;28;20036;-85
2022/05/09 02:47:51;;;;;;;16.67;4.82;;;6.60;99.90;;;;;;5088726;28;20050;-85
2022/05/09 02:50:19;;;;;;;17.30;5.50;;;6.60;99.90;;;;;;5114577;28;20043;-84
2022/05/09 02:52:46;;;;;;;15.98;4.78;;;7.40;99.90;;;;;;5081146;28;20784;-85
2022/05/09 02:55:12;;;;;;;15.48;4.68;;;6.50;99.90;;;;;;5114071;28;20044;-85
2022/05/09 02:57:38;;;;;;;14.27;4.95;;;6.50;99.90;;;;;;5078270;28;20067;-81
2022/05/09 03:00:07;;;;;;;15.00;5.10;;;6.50;99.90;;;;;;5093165;28;20097;-82
2022/05/09 03:02:33;;;;;;;13.55;4.68;;;6.50;99.90;;;;;;5095534;28;20039;-85
2022/05/09 03:04:58;;;;;;;19.73;5.03;;;6.50;99.90;;;;;;5072271;28;20035;-82
2022/05/09 03:07:24;;;;;;;13.98;4.70;;;6.50;99.90;;;;;;5098022;28;20067;-85
2022/05/09 03:09:50;;;;;;;15.13;4.97;;;7.20;99.90;;;;;;5073978;28;20039;-85
2022/05/09 03:12:19;;;;;;;17.17;5.18;;;6.20;99.90;;;;;;5076063;28;20036;-85
2022/05/09 03:14:47;;;;;;;20.45;5.07;;;6.30;99.90;;;;;;5106740;28;20046;-83
2022/05/09 03:17:14;;;;;;;14.23;5.03;;;6.60;99.90;;;;;;5100075;27;20035;-82
2022/05/09 03:19:40;;;;;;;11.52;5.03;;;6.30;99.90;;;;;;5099532;27;20043;-82
2022/05/09 03:22:06;;;;;;;16.55;5.03;;;6.60;99.90;;;;;;5101715;27;20043;-81
2022/05/09 03:24:32;;;;;;;14.05;5.22;;;6.20;99.90;;;;;;5118629;27;20356;-81
2022/05/09 03:27:03;;;;;;;22.08;5.55;;;6.50;99.90;;;;;;5075123;27;20027;-82
2022/05/09 03:29:30;;;;;;;11.90;4.80;;;6.90;99.90;;;;;;5101718;27;20062;-81
2022/05/09 03:31:56;;;;;;;17.95;5.60;;;5.80;99.90;;;;;;5099040;27;20058;-81
2022/05/09 03:34:22;;;;;;;16.90;5.32;;;6.20;99.90;;;;;;5094587;27;20036;-81
2022/05/09 03:36:51;;;;;;;12.52;4.95;;;7.10;99.90;;;;;;5091620;27;20503;-82
2022/05/09 03:39:17;;;;;;;14.20;5.05;;;7.10;99.90;;;;;;5081966;27;20118;-81
2022/05/09 03:41:42;;;;;;;13.48;5.45;;;6.00;99.90;;;;;;5090939;27;20153;-81
2022/05/09 03:44:08;;;;;;;18.00;5.75;;;5.90;99.90;;;;;;5090046;28;20039;-81
2022/05/09 03:46:34;;;;;;;21.55;5.97;;;6.00;99.90;;;;;;5082635;27;20111;-81
2022/05/09 03:49:04;;;;;;;15.43;5.60;;;5.90;99.90;;;;;;5112128;27;20382;-82
2022/05/09 03:51:30;;;;;;;21.75;6.03;;;5.90;99.90;;;;;;5090632;27;20118;-82
2022/05/09 03:53:56;;;;;;;18.48;5.72;;;6.50;99.90;;;;;;5066382;27;20083;-82
2022/05/09 03:56:22;;;;;;;17.90;5.68;;;5.20;99.90;;;;;;5096236;27;20154;-83
2022/05/09 03:58:47;;;;;;;15.63;6.00;;;5.80;99.90;;;;;;5100330;27;20522;-83
2022/05/09 04:01:13;;;;;;;24.55;6.13;;;5.80;99.90;;;;;;5099306;27;20482;-82
2022/05/09 04:03:39;;;;;;;20.70;6.53;;;5.80;99.90;;;;;;5077959;28;20031;-84
2022/05/09 04:06:05;;;;;;;18.45;5.22;;;6.00;99.90;;;;;;5081344;27;20088;-84
2022/05/09 04:08:31;;;;;;;13.27;5.70;;;5.30;99.90;;;;;;5090860;28;21079;-84
2022/05/09 04:10:58;;;;;;;14.88;6.18;;;6.60;99.90;;;;;;5095412;27;20046;-83
2022/05/09 04:13:23;;;;;;;17.90;5.95;;;6.50;99.90;;;;;;5098858;27;20035;-83
2022/05/09 04:18:38;;;;;;;18.73;5.95;;;5.90;99.90;;;;;;5115467;27;20100;-83
2022/05/09 04:21:05;;;;;;;17.25;5.78;;;6.60;99.90;;;;;;5077746;28;20504;-83
2022/05/09 04:23:30;;;;;;;20.92;6.28;;;5.90;99.90;;;;;;5094140;28;20168;-83
2022/05/09 04:25:56;;;;;;;15.43;5.97;;;5.90;99.90;;;;;;5097213;28;20085;-83
2022/05/09 04:28:22;;;;;;;17.10;5.78;;;5.90;99.90;;;;;;5112928;28;20046;-83
2022/05/09 04:30:48;;;;;;;15.18;5.97;;;5.90;99.90;;;;;;5079778;28;20043;-83
2022/05/09 04:33:14;;;;;;;11.95;5.25;;;6.70;99.90;;;;;;5094806;28;20066;-83
2022/05/09 04:35:42;;;;;;;18.40;6.03;;;6.00;99.90;;;;;;5096607;28;20039;-83
2022/05/09 04:38:21;;;;;;;16.73;5.60;;;6.40;99.90;;;;;;5113762;28;20403;-83
2022/05/09 04:40:51;;;;;;;13.50;5.68;;;6.00;99.90;;;;;;5095276;28;20450;-84
2022/05/09 04:43:19;;;;;;;15.75;6.68;;;6.50;99.90;;;;;;5108697;28;20047;-83
2022/05/09 04:45:45;;;;;;;18.65;6.07;;;6.00;99.90;;;;;;5094457;28;20039;-83
2022/05/09 04:48:11;;;;;;;18.50;6.07;;;6.00;99.90;;;;;;5093060;28;20044;-83
2022/05/09 04:50:36;;;;;;;18.65;6.78;;;7.10;99.90;;;;;;5071383;28;20528;-81
2022/05/09 04:53:03;;;;;;;18.20;6.53;;;6.00;99.90;;;;;;5055754;28;20519;-83
2022/05/09 04:55:32;;;;;;;15.25;5.38;;;6.00;99.90;;;;;;5079032;28;20036;-83
2022/05/09 04:57:58;;;;;;;18.30;6.97;;;6.10;99.90;;;;;;5096385;28;20044;-83
2022/05/09 05:00:26;;;;;;;23.40;6.32;;;5.50;99.90;;;;;;5077072;28;20040;-83
2022/05/09 05:02:52;;;;;;;17.95;5.82;;;6.10;99.90;;;;;;5091559;28;20067;-83
2022/05/09 05:05:18;;;;;;;15.48;6.13;;;6.20;99.90;;;;;;5078052;28;20123;-84
2022/05/09 05:07:44;;;;;;;16.08;6.78;;;6.20;99.90;;;;;;5094851;28;20127;-83
2022/05/09 05:10:11;;;;;;;20.08;7.00;;;6.20;99.90;;;;;;5091506;28;20119;-84
2022/05/09 05:12:37;;;;;;;19.52;7.07;;;6.40;99.90;;;;;;5095668;28;20119;-83
2022/05/09 05:15:04;;;;;;;20.00;6.40;;;6.30;99.90;;;;;;5096211;28;20082;-83
2022/05/09 05:17:30;;;;;;;17.80;6.05;;;6.40;99.90;;;;;;5079267;28;20632;-82
2022/05/09 05:19:55;;;;;;;20.60;6.72;;;6.40;99.90;;;;;;5094650;28;20059;-83
2022/05/09 05:22:21;;;;;;;17.30;6.35;;;6.70;99.90;;;;;;5109834;28;20089;-82
2022/05/09 05:24:52;;;;;;;15.73;7.10;;;6.50;99.90;;;;;;5095885;28;20502;-82
2022/05/09 05:27:21;;;;;;;16.00;6.47;;;6.60;99.90;;;;;;5077169;28;20066;-82
2022/05/09 05:29:47;;;;;;;14.50;6.57;;;6.60;99.90;;;;;;5094257;28;20035;-82
2022/05/09 05:32:35;;;;;;;15.38;7.13;;;6.50;99.90;;;;;;5078208;28;20115;-81
2022/05/09 05:35:01;;;;;;;15.77;6.65;;;7.40;99.90;;;;;;5087493;28;20036;-83
2022/05/09 05:37:27;;;;;;;20.77;7.53;;;6.80;99.90;;;;;;5109970;28;20050;-81
2022/05/09 05:39:53;;;;;;;17.38;7.13;;;6.40;99.90;;;;;;5089155;28;20472;-82
2022/05/09 05:42:20;;;;;;;16.20;6.22;;;7.10;99.90;;;;;;5094013;28;20084;-81
2022/05/09 05:44:47;;;;;;;18.70;6.97;;;7.10;99.90;;;;;;5075320;28;20039;-81
2022/05/09 05:47:14;;;;;;;20.50;6.88;;;7.10;99.90;;;;;;5087834;28;20130;-81
2022/05/09 05:49:41;;;;;;;18.77;6.70;;;7.20;99.90;;;;;;5108964;28;20042;-82
2022/05/09 05:52:08;;;;;;;17.63;7.68;;;7.30;99.90;;;;;;5093417;28;20126;-82
2022/05/09 05:54:36;;;;;;;20.02;7.43;;;7.70;99.90;;;;;;5108212;28;20075;-82
2022/05/09 05:57:04;;;;;;;18.05;7.13;;;7.40;99.90;;;;;;5084957;28;20035;-82
2022/05/09 05:59:30;;;;;;;19.08;7.25;;;7.50;99.90;;;;;;5094089;28;20123;-82
2022/05/09 06:01:56;;;;;;;18.70;7.22;;;7.50;99.90;;;;;;5112320;28;20035;-82
2022/05/09 06:04:22;;;;;;;17.38;6.72;;;7.70;99.90;;;;;;5093069;28;20364;-84
2022/05/09 06:06:50;;;;;;;21.70;6.95;;;7.80;99.90;;;;;;5093097;28;20097;-82
2022/05/09 06:09:17;;;;;;;23.60;7.68;;;7.90;99.90;;;;;;5075231;28;20044;-82
2022/05/09 06:11:43;;;;;;;22.02;7.93;;;8.20;99.90;;;;;;5091692;28;20122;-81
2022/05/09 06:14:12;;;;;;;17.83;7.20;;;8.10;99.90;;;;;;5074869;28;20118;-81
2022/05/09 06:16:38;;;;;;;12.77;6.35;;;8.30;99.90;;;;;;5068431;28;20093;-81
2022/05/09 06:19:04;;;;;;;20.10;7.70;;;8.40;99.90;;;;;;5073405;28;20040;-81
2022/05/09 06:21:33;;;;;;;21.80;7.97;;;8.60;99.90;;;;;;5094798;28;20105;-79
2022/05/09 06:24:00;;;;;;;18.42;7.45;;;8.80;99.90;;;;;;5077691;28;20054;-77
2022/05/09 06:26:27;;;;;;;17.05;6.95;;;8.90;99.90;;;;;;5069141;28;20044;-80
2022/05/09 06:28:53;;;;;;;20.08;7.32;;;9.10;99.90;;;;;;5091193;28;20040;-80
2022/05/09 06:31:19;;;;;;;18.02;7.07;;;9.30;99.90;;;;;;5091774;28;20079;-78
2022/05/09 06:33:45;;;;;;;22.90;7.65;;;9.40;99.90;;;;;;5105684;28;20047;-80
2022/05/09 06:36:10;;;;;;;16.95;6.97;;;9.80;99.90;;;;;;5067190;28;20092;-80
2022/05/09 06:38:36;;;;;;;15.68;6.18;;;10.20;99.90;;;;;;5060566;28;20043;-80
2022/05/09 06:41:02;;;;;;;15.00;5.97;;;10.80;99.90;;;;;;5079221;28;20040;-81
2022/05/09 06:43:30;;;;;;;21.98;6.38;;;11.30;99.90;;;;;;5092691;28;20127;-81
2022/05/09 06:45:57;;;;;;;17.92;5.80;;;11.80;99.90;;;;;;5074875;28;20170;-81
2022/05/09 06:48:23;;;;;;;17.52;6.18;;;12.30;99.90;;;;;;5094873;28;20039;-80
2022/05/09 06:50:49;;;;;;;22.85;6.10;;;12.70;99.90;;;;;;5112230;28;20209;-81
2022/05/09 06:53:15;;;;;;;15.43;5.85;;;13.10;99.90;;;;;;5087840;28;20508;-81
2022/05/09 06:55:41;;;;;;;15.25;6.30;;;13.50;99.90;;;;;;5081307;28;20082;-81
2022/05/09 06:58:16;;;;;;;13.23;6.35;;;13.70;99.90;;;;;;5096340;28;20036;-81
2022/05/09 07:00:42;;;;;;;18.77;5.45;;;14.00;99.90;;;;;;5094630;28;20450;-80
2022/05/09 07:03:08;;;;;;;13.90;5.53;;;14.30;99.90;;;;;;5090062;28;20126;-80
2022/05/09 07:05:37;;;;;;;19.00;5.55;;;14.50;99.90;;;;;;5081749;28;20036;-80
2022/05/09 07:08:03;;;;;;;13.98;5.40;;;14.80;99.90;;;;;;5095840;28;20043;-80
2022/05/09 07:10:29;;;;;;;17.38;5.57;;;14.90;99.90;;;;;;5099331;28;20356;-80
2022/05/09 07:12:56;;;;;;;16.80;5.72;;;15.00;99.90;;;;;;5111322;28;20126;-80
2022/05/09 07:15:27;;;;;;;18.38;5.95;;;15.10;99.90;;;;;;5062074;28;20036;-80
2022/05/09 07:17:54;;;;;;;15.18;5.40;;;15.20;99.90;;;;;;5091067;28;20532;-80
2022/05/09 07:20:21;;;;;;;18.58;5.03;;;15.40;99.90;;;;;;5094245;28;20446;-80
2022/05/09 07:22:52;;;;;;;18.50;5.20;;;15.40;99.90;;;;;;5095316;28;20055;-79
2022/05/09 07:25:21;;;;;;;18.60;5.57;;;15.60;99.90;;;;;;5088678;28;20043;-80
2022/05/09 07:27:46;;;;;;;15.70;5.40;;;15.80;99.90;;;;;;5088867;28;20071;-80
2022/05/09 07:30:14;;;;;;;11.52;5.03;;;16.10;99.90;;;;;;5086115;28;20071;-80
2022/05/09 07:32:40;;;;;;;14.48;5.15;;;16.20;99.90;;;;;;5094038;28;20048;-79
2022/05/09 07:35:08;;;;;;;12.57;5.00;;;16.30;99.90;;;;;;5063211;28;20108;-80
2022/05/09 07:37:34;;;;;;;15.05;5.30;;;16.40;99.90;;;;;;5094638;28;20062;-80
2022/05/09 07:40:00;;;;;;;10.73;4.90;;;16.50;99.90;;;;;;5090252;28;20044;-81
2022/05/09 07:42:27;;;;;;;11.68;4.80;;;16.70;99.90;;;;;;5110295;28;20036;-80
2022/05/09 07:44:56;;;;;;;11.68;5.25;;;16.90;99.90;;;;;;5075110;28;20172;-80
2022/05/09 07:47:22;;;;;;;13.90;5.30;;;17.00;99.90;;;;;;5077441;28;20048;-80
2022/05/09 07:49:48;;;;;;;14.77;5.07;;;17.10;99.90;;;;;;5112378;28;20119;-80
2022/05/09 07:52:13;;;;;;;14.65;5.13;;;17.10;99.90;;;;;;5076392;28;20075;-81
2022/05/09 07:54:39;;;;;;;15.05;5.22;;;17.20;99.90;;;;;;5112325;28;20028;-81
2022/05/09 07:57:05;;;;;;;13.88;5.65;;;17.30;99.90;;;;;;5078132;28;20537;-80
2022/05/09 07:59:31;;;;;;;17.40;6.03;;;17.40;99.90;;;;;;5097356;28;20127;-80
2022/05/09 08:01:57;;;;;;;13.63;5.18;;;17.40;99.90;;;;;;5078008;28;20340;-80
2022/05/09 08:04:23;;;;;;;19.50;4.93;;;17.40;99.90;;;;;;5096478;28;20047;-80
2022/05/09 08:06:49;;;;;;;12.30;5.03;;;17.60;99.90;;;;;;5097367;28;20040;-81
2022/05/09 08:09:15;;;;;;;13.20;4.53;;;17.70;99.90;;;;;;5094580;28;20044;-81
2022/05/09 08:11:41;;;;;;;12.90;5.30;;;17.90;99.90;;;;;;5080054;28;20450;-80
2022/05/09 08:14:08;;;;;;;12.60;4.72;;;18.00;99.90;;;;;;5091325;28;20127;-80
2022/05/09 08:16:34;;;;;;;15.45;4.72;;;18.20;99.90;;;;;;5111527;28;20122;-80
2022/05/09 08:19:02;;;;;;;10.48;4.50;;;18.30;99.90;;;;;;5097353;28;20067;-80
2022/05/09 08:21:28;;;;;;;10.27;4.45;;;18.30;99.00;;;;;;5092538;28;20495;-80
2022/05/09 08:23:54;;;;;;;11.82;4.75;;;18.30;99.40;;;;;;5095703;28;20088;-80
2022/05/09 08:26:21;;;;;;;13.13;4.47;;;18.40;99.70;;;;;;5112645;28;20027;-80
2022/05/09 08:28:48;;;;;;;11.65;4.40;;;18.40;98.00;;;;;;5087531;28;20086;-79
2022/05/09 08:31:18;;;;;;;10.75;4.38;;;18.50;96.50;;;;;;5096813;28;20074;-80
2022/05/09 08:33:49;;;;;;;10.45;4.57;;;18.50;96.30;;;;;;5096365;28;20051;-80
2022/05/09 08:39:01;;;;;;;15.93;5.03;;;18.70;96.40;;;;;;5102648;28;20040;-79
2022/05/09 08:41:35;;;;;;;13.10;3.83;;;18.80;96.60;;;;;;5107967;28;20394;-79
2022/05/09 08:44:37;;;;;;;10.93;3.75;;;18.80;95.10;;;;;;5093401;28;20513;-79
2022/05/09 08:47:25;;;;;;;11.57;3.65;;;18.90;94.00;;;;;;5091782;28;20040;-79
2022/05/09 08:49:57;;;;;;;11.80;3.80;;;19.10;94.10;;;;;;5088803;28;20115;-79
2022/05/09 08:52:36;;;;;;;8.65;3.83;;;19.20;92.10;;;;;;5090693;28;20032;-79
2022/05/09 08:55:03;;;;;;;11.23;3.53;;;19.30;91.70;;;;;;5096084;28;20067;-79
2022/05/09 08:57:37;;;;;;;8.98;3.20;;;19.40;91.90;;;;;;5071831;28;20069;-79
2022/05/09 09:00:12;;;;;;;11.38;3.20;;;19.50;90.40;;;;;;5088174;28;20042;-78
2022/05/09 09:03:22;;;;;;;12.50;3.15;;;19.50;87.40;;;;;;5094722;28;20153;-79
2022/05/09 09:05:51;;;;;;;7.47;2.67;;;19.50;86.10;;;;;;5090613;28;20039;-79
2022/05/09 09:08:20;;;;;;;8.93;2.80;;;19.50;82.30;;;;;;5102800;28;20071;-79
2022/05/09 09:10:49;;;;;;;13.13;2.35;;;19.60;79.80;;;;;;5103902;28;20118;-79
2022/05/09 09:13:43;;;;;;;9.55;2.83;;;19.70;78.70;;;;;;5077398;28;20520;-79
2022/05/09 09:16:37;;;;;;;8.45;2.70;;;19.70;78.00;;;;;;5099189;28;20122;-78
2022/05/09 09:19:24;;;;;;;9.02;3.03;;;19.90;70.60;;;;;;5105171;28;20044;-79
2022/05/09 09:22:12;;;;;;;8.55;2.50;;;19.80;72.10;;;;;;5103662;28;20093;-80
2022/05/09 09:24:46;;;;;;;9.65;3.00;;;19.90;74.70;;;;;;5093891;28;20118;-80
2022/05/09 09:27:41;;;;;;;10.60;3.00;;;20.00;74.20;;;;;;5111955;28;20072;-79
2022/05/09 09:30:13;;;;;;;9.85;3.03;;;20.10;70.60;;;;;;5088979;28;20480;-79
2022/05/09 09:32:41;;;;;;;10.35;2.53;;;20.20;73.50;;;;;;5093675;28;20100;-79
2022/05/09 09:35:10;;;;;;;7.32;3.33;;;20.20;73.00;;;;;;5094102;27;20375;-79
2022/05/09 09:37:57;;;;;;;10.18;2.58;;;20.30;71.00;;;;;;5095545;28;20665;-79
2022/05/09 09:40:22;;;;;;;12.40;2.90;;;20.20;69.50;;;;;;5091336;28;20123;-80
2022/05/09 09:42:55;;;;;;;40.47;3.90;;;20.20;69.00;;;;;;5099509;27;20114;-79
2022/05/09 09:45:36;;;;;;;10.55;3.15;;;20.10;68.30;;;;;;5089996;28;20383;-78
2022/05/09 09:48:17;;;;;;;10.13;2.40;;;20.00;68.50;;;;;;5090507;28;20041;-78
2022/05/09 09:51:10;;;;;;;10.18;3.10;;;19.70;69.50;;;;;;5089997;28;20092;-78
2022/05/09 09:53:58;;;;;;;10.05;3.08;;;19.60;69.30;;;;;;5088235;28;20078;-78
2022/05/09 09:56:24;;;;;;;8.05;2.88;;;19.60;66.90;;;;;;5100203;28;20043;-78
2022/05/09 09:58:52;;;;;;;8.82;2.90;;;19.50;67.40;;;;;;5102370;28;20487;-78
2022/05/09 10:01:28;;;;;;;9.70;3.50;;;19.50;68.20;;;;;;5078832;28;20055;-78
2022/05/09 10:04:24;;;;;;;10.32;2.97;;;19.50;68.80;;;;;;5084129;28;20043;-78
2022/05/09 10:07:06;;;;;;;17.83;3.60;;;19.40;68.50;;;;;;5094500;28;20050;-78
2022/05/09 10:10:01;;;;;;;12.77;3.15;;;19.40;67.70;;;;;;5085474;28;20043;-79
2022/05/09 10:12:29;;;;;;;11.35;2.55;;;19.30;69.00;;;;;;5103813;28;20134;-78
2022/05/09 10:14:56;;;;;;;10.50;3.17;;;19.20;69.10;;;;;;5086957;28;20047;-78
2022/05/09 10:17:25;;;;;;;10.55;2.67;;;19.20;68.30;;;;;;5079263;28;20111;-78
2022/05/09 10:19:53;;;;;;;10.93;3.40;;;19.10;68.20;;;;;;5087998;28;20087;-78
2022/05/09 10:25:28;;;;;;;9.70;3.05;;;19.10;69.60;;;;;;5102655;28;20070;-77
2022/05/09 10:28:03;;;;;;;7.38;3.08;;;19.20;70.30;;;;;;5088758;28;20471;-78
2022/05/09 10:30:33;;;;;;;12.47;3.23;;;19.30;69.30;;;;;;5089990;28;20047;-78
2022/05/09 10:33:07;;;;;;;8.50;2.83;;;19.30;69.20;;;;;;5089729;28;20362;-78
2022/05/09 10:35:57;;;;;;;12.00;3.00;;;19.30;68.50;;;;;;5086885;28;20048;-78
2022/05/09 10:38:36;;;;;;;10.38;2.90;;;19.30;69.30;;;;;;5075717;28;20051;-77
2022/05/09 10:41:09;;;;;;;8.70;2.45;;;19.30;68.20;;;;;;5089455;28;20043;-77
2022/05/09 10:43:50;;;;;;;9.63;2.90;;;19.40;68.80;;;;;;5105167;28;20032;-77
2022/05/09 10:46:18;;;;;;;8.32;2.83;;;19.40;68.90;;;;;;5094018;28;20031;-78
2022/05/09 10:49:12;;;;;;;11.88;3.08;;;19.50;69.30;;;;;;5118779;28;20040;-79
2022/05/09 10:51:58;;;;;;;22.98;3.22;;;19.50;69.40;;;;;;5104147;28;20046;-78
2022/05/09 10:54:55;;;;;;;6.80;2.28;;;19.50;67.60;;;;;;5089382;28;20035;-77
2022/05/09 10:57:42;;;;;;;8.50;2.90;;;19.50;68.30;;;;;;5082255;28;20242;-78
2022/05/09 11:00:12;;;;;;;9.95;3.13;;;19.60;67.50;;;;;;5103294;28;20071;-79
2022/05/09 11:02:42;;;;;;;8.25;2.97;;;19.50;68.30;;;;;;5087325;28;20075;-78
2022/05/09 11:05:08;;;;;;;8.95;2.78;;;19.60;68.70;;;;;;5088864;28;20495;-78
2022/05/09 11:07:58;;;;;;;18.27;3.20;;;19.60;68.50;;;;;;5073034;28;20071;-78
2022/05/09 11:10:38;;;;;;;10.05;3.28;;;19.60;69.00;;;;;;5088594;28;20082;-80
2022/05/09 11:13:13;;;;;;;12.23;3.20;;;19.60;68.50;;;;;;5104966;28;20079;-79
2022/05/09 11:15:38;;;;;;;6.20;2.58;;;19.60;68.90;;;;;;5089484;28;20055;-78
2022/05/09 11:18:23;;;;;;;12.32;3.70;;;19.60;68.80;;;;;;5089176;28;20043;-80
2022/05/09 11:21:26;;;;;;;8.05;3.35;;;19.70;68.90;;;;;;5087310;28;20055;-79
2022/05/09 11:24:16;;;;;;;11.43;3.28;;;19.70;69.50;;;;;;5088985;28;20046;-79
2022/05/09 11:27:26;;;;;;;10.27;3.15;;;19.70;69.10;;;;;;5106663;28;20074;-78
2022/05/09 11:30:07;;;;;;;10.55;3.38;;;19.70;68.70;;;;;;5082543;28;20069;-79
2022/05/09 11:32:41;;;;;;;29.73;3.67;;;19.70;70.00;;;;;;5087966;28;20036;-80
2022/05/09 11:35:28;;;;;;;8.90;3.10;;;19.70;70.10;;;;;;5087112;28;20047;-79
2022/05/09 11:38:31;;;;;;;12.50;3.25;;;19.80;70.50;;;;;;5091717;28;20046;-79
2022/05/09 11:41:44;;;;;;;7.35;3.35;;;19.90;69.60;;;;;;5091428;28;20161;-79
2022/05/09 11:44:21;;;;;;;10.20;3.00;;;20.00;69.70;;;;;;5050335;28;20139;-79
2022/05/09 11:47:21;;;;;;;10.95;3.50;;;20.10;70.20;;;;;;5099401;28;20055;-79
2022/05/09 11:50:46;;;;;;;10.40;3.28;;;20.20;70.20;;;;;;5091176;28;20045;-78
2022/05/09 11:53:14;;;;;;;11.23;3.15;;;20.30;69.80;;;;;;5014783;28;20047;-79
2022/05/09 11:55:41;;;;;;;11.30;3.20;;;20.30;70.10;;;;;;5077644;28;20160;-78
2022/05/09 11:58:07;;;;;;;9.30;3.15;;;20.40;70.20;;;;;;5108886;28;20113;-79
2022/05/09 12:00:35;;;;;;;8.57;3.15;;;20.50;69.50;;;;;;5073201;27;20560;-79
2022/05/09 12:03:07;;;;;;;8.77;3.00;;;20.60;69.30;;;;;;5092585;27;20046;-83
2022/05/09 12:05:41;;;;;;;8.75;2.60;;;20.60;68.90;;;;;;5106605;28;20494;-81
2022/05/09 12:08:18;;;;;;;7.20;2.67;;;20.70;68.00;;;;;;5090473;28;20073;-81
2022/05/09 12:10:50;;;;;;;10.27;2.95;;;20.70;66.00;;;;;;5106591;27;20442;-80
2022/05/09 12:13:41;;;;;;;11.48;3.00;;;20.80;65.10;;;;;;5089746;28;20040;-81
2022/05/09 12:16:08;;;;;;;15.40;3.13;;;20.90;63.60;;;;;;5090777;28;20806;-81
2022/05/09 12:18:54;;;;;;;8.82;2.72;;;20.80;65.20;;;;;;5073498;28;20086;-81
2022/05/09 12:21:22;;;;;;;7.60;2.60;;;21.00;66.00;;;;;;5091800;28;20423;-81
2022/05/09 12:23:50;;;;;;;8.10;2.60;;;21.10;64.00;;;;;;5089946;28;20035;-81
2022/05/09 12:26:31;;;;;;;14.20;3.20;;;21.30;66.00;;;;;;5071320;28;20075;-81
2022/05/09 12:29:30;;;;;;;12.65;3.45;;;21.40;66.30;;;;;;5106693;28;20067;-81
2022/05/09 12:32:02;;;;;;;11.13;3.05;;;21.60;64.80;;;;;;5093695;28;20035;-80
2022/05/09 12:34:37;;;;;;;11.43;2.75;;;21.70;64.10;;;;;;5089337;28;20050;-81
2022/05/09 12:37:04;;;;;;;8.02;3.00;;;21.70;64.20;;;;;;5088544;28;20563;-80
2022/05/09 12:39:36;;;;;;;6.60;2.95;;;21.90;62.50;;;;;;5105712;28;20133;-86
2022/05/09 12:42:25;;;;;;;7.03;2.80;;;22.00;62.00;;;;;;5107902;28;20050;-86
2022/05/09 12:44:57;;;;;;;18.38;2.90;;;22.10;61.50;;;;;;5089503;28;20031;-86
2022/05/09 12:47:34;;;;;;;10.75;2.70;;;22.20;62.90;;;;;;5087837;28;20050;-85
2022/05/09 12:50:35;;;;;;;12.75;3.60;;;22.60;63.90;;;;;;5105206;28;20568;-86
2022/05/09 12:53:06;;;;;;;9.25;3.72;;;23.30;63.00;;;;;;5055990;28;20185;-87
2022/05/09 12:58:30;;;;;;;24.15;4.93;;;24.30;61.50;;;;;;5106534;28;20495;-86
2022/05/09 13:01:21;;;;;;;8.77;2.83;;;24.80;61.80;;;;;;5088575;28;20074;-87
2022/05/09 13:03:48;;;;;;;7.80;3.25;;;25.20;57.30;;;;;;5089273;28;20038;-86
2022/05/09 13:06:21;;;;;;;10.98;3.78;;;25.50;60.60;;;;;;5090334;28;20485;-86
2022/05/09 13:08:48;;;;;;;7.47;3.13;;;25.90;57.90;;;;;;5088735;28;20085;-86
2022/05/09 13:11:17;;;;;;;10.02;3.72;;;26.10;57.80;;;;;;5090669;28;20039;-84
2022/05/09 13:14:17;;;;;;;7.82;2.70;;;26.40;57.50;;;;;;5091365;28;20036;-84
2022/05/09 13:16:54;;;;;;;9.38;3.25;;;26.60;54.70;;;;;;5089664;28;20032;-84
2022/05/09 13:19:20;;;;;;;12.82;3.35;;;26.80;53.60;;;;;;5088905;28;20059;-83